TimeCDT,TemperatureF,Dew PointF,Humidity,Sea Level PressureIn,VisibilityMPH,Wind Direction,Wind SpeedMPH,Gust SpeedMPH,PrecipitationIn,Events,Conditions,WindDirDegrees,DateUTC
12:56 AM,63.0,60.1,90,30.20,9.0,Calm,Calm,-,N/A,,Clear,0,2012-10-04 05:56:00
1:56 AM,61.0,59.0,93,30.21,5.0,Calm,Calm,-,N/A,,Clear,0,2012-10-04 06:56:00
2:41 AM,60.8,57.2,88,30.18,2.0,Calm,Calm,-,N/A,,Clear,0,2012-10-04 07:41:00
2:56 AM,60.1,57.9,93,30.21,6.0,Calm,Calm,-,N/A,,Clear,0,2012-10-04 07:56:00
3:34 AM,60.8,57.2,88,30.20,2.0,Calm,Calm,-,N/A,,Clear,0,2012-10-04 08:34:00
3:41 AM,59.0,57.2,94,30.20,1.5,Calm,Calm,-,N/A,,Clear,0,2012-10-04 08:41:00
3:46 AM,59.0,57.2,94,30.20,3.0,Calm,Calm,-,N/A,,Clear,0,2012-10-04 08:46:00
3:56 AM,60.1,57.9,93,30.23,4.0,Calm,Calm,-,N/A,,Clear,0,2012-10-04 08:56:00
4:56 AM,57.9,55.9,93,30.24,6.0,Calm,Calm,-,N/A,,Clear,0,2012-10-04 09:56:00
5:56 AM,57.0,55.9,96,30.26,6.0,Calm,Calm,-,N/A,,Clear,0,2012-10-04 10:56:00
6:21 AM,57.2,55.4,94,30.23,3.0,Calm,Calm,-,N/A,,Partly Cloudy,0,2012-10-04 11:21:00
6:35 AM,57.2,55.4,94,30.24,2.0,Calm,Calm,-,N/A,,Partly Cloudy,0,2012-10-04 11:35:00
6:53 AM,57.2,55.4,94,30.24,1.0,East,3.5,-,N/A,,Mist,100,2012-10-04 11:53:00
6:56 AM,55.9,55.0,97,30.27,0.8,Calm,Calm,-,N/A,,Mist,0,2012-10-04 11:56:00
7:25 AM,57.2,55.4,94,30.25,1.0,Calm,Calm,-,N/A,,Mostly Cloudy,0,2012-10-04 12:25:00
7:52 AM,60.8,57.2,88,30.26,2.0,Calm,Calm,-,N/A,,Mostly Cloudy,0,2012-10-04 12:52:00
7:56 AM,60.1,57.9,93,30.29,2.0,Calm,Calm,-,N/A,,Mostly Cloudy,0,2012-10-04 12:56:00
8:08 AM,60.8,59.0,94,30.26,2.0,Calm,Calm,-,N/A,,Clear,0,2012-10-04 13:08:00
8:53 AM,64.4,60.8,88,30.27,9.0,Calm,Calm,-,N/A,,Clear,0,2012-10-04 13:53:00
8:56 AM,64.9,60.1,84,30.30,9.0,Calm,Calm,-,N/A,,Clear,0,2012-10-04 13:56:00
9:56 AM,70.0,61.0,73,30.30,10.0,ESE,4.6,-,N/A,,Clear,120,2012-10-04 14:56:00
10:56 AM,75.0,60.1,60,30.30,10.0,Calm,Calm,-,N/A,,Clear,0,2012-10-04 15:56:00
11:56 AM,77.0,57.0,50,30.28,10.0,Calm,Calm,-,N/A,,Clear,0,2012-10-04 16:56:00
12:56 PM,80.1,57.0,45,30.26,10.0,Variable,3.5,-,N/A,,Partly Cloudy,0,2012-10-04 17:56:00
1:56 PM,81.0,57.9,45,30.24,10.0,ENE,4.6,-,N/A,,Partly Cloudy,60,2012-10-04 18:56:00
2:56 PM,82.0,57.0,42,30.23,10.0,East,3.5,-,N/A,,Partly Cloudy,100,2012-10-04 19:56:00
3:56 PM,82.0,57.0,42,30.22,10.0,East,6.9,-,N/A,,Partly Cloudy,80,2012-10-04 20:56:00
4:56 PM,81.0,55.9,42,30.21,10.0,ENE,5.8,-,N/A,,Partly Cloudy,70,2012-10-04 21:56:00
5:56 PM,79.0,60.1,52,30.21,10.0,ENE,3.5,-,N/A,,Partly Cloudy,70,2012-10-04 22:56:00
6:56 PM,71.1,63.0,75,30.21,10.0,Calm,Calm,-,N/A,,Clear,0,2012-10-04 23:56:00
7:56 PM,66.9,63.0,87,30.22,10.0,Calm,Calm,-,N/A,,Clear,0,2012-10-05 00:56:00
8:56 PM,64.9,62.1,90,30.23,8.0,Calm,Calm,-,N/A,,Clear,0,2012-10-05 01:56:00
9:56 PM,63.0,61.0,93,30.23,6.0,Calm,Calm,-,N/A,,Clear,0,2012-10-05 02:56:00
10:56 PM,63.0,61.0,93,30.22,7.0,Calm,Calm,-,N/A,,Clear,0,2012-10-05 03:56:00
11:56 PM,61.0,59.0,93,30.22,5.0,Calm,Calm,-,N/A,,Clear,0,2012-10-05 04:56:00